Time,TemperatureF,DewpointF,PressureIn,WindDirection,WindDirectionDegrees,WindSpeedMPH,WindSpeedGustMPH,Humidity,HourlyPrecipIn,Conditions,Clouds,dailyrainin,SolarRadiationWatts/m^2,SoftwareType,DateUTC
2013-06-07 00:06:00,55.5,48.0,30.03,NNE,30,1.0,-999.0,75,-99.99,,,0.00,0,weatherlink.com 1.10,2013-06-07 05:06:00,
2013-06-07 00:26:00,55.1,48.0,30.03,NNE,13,1.0,-999.0,76,-99.99,,,0.00,0,weatherlink.com 1.10,2013-06-07 05:26:00,
2013-06-07 00:38:00,54.8,48.0,30.03,NNE,13,1.0,-999.0,77,-99.99,,,0.00,0,weatherlink.com 1.10,2013-06-07 05:38:00,
2013-06-07 00:51:00,54.5,48.0,30.03,North,5,1.0,-999.0,78,-99.99,,,0.00,0,weatherlink.com 1.10,2013-06-07 05:51:00,
2013-06-07 01:06:00,54.0,47.0,30.03,North,5,1.0,-999.0,78,-99.99,,,0.00,0,weatherlink.com 1.10,2013-06-07 06:06:00,
2013-06-07 01:21:00,53.7,48.0,30.03,North,5,2.0,-999.0,80,-99.99,,,0.00,0,weatherlink.com 1.10,2013-06-07 06:21:00,
2013-06-07 01:36:00,53.4,48.0,30.03,NNW,340,1.0,-999.0,81,-99.99,,,0.00,0,weatherlink.com 1.10,2013-06-07 06:36:00,
2013-06-07 01:51:00,53.2,48.0,30.03,NNW,333,1.0,-999.0,81,-99.99,,,0.00,0,weatherlink.com 1.10,2013-06-07 06:51:00,
2013-06-07 02:06:00,52.9,48.0,30.02,NNW,343,2.0,-999.0,82,-99.99,,,0.00,0,weatherlink.com 1.10,2013-06-07 07:06:00,
2013-06-07 02:21:00,52.7,47.0,30.03,NNW,338,1.0,-999.0,82,-99.99,,,0.00,0,weatherlink.com 1.10,2013-06-07 07:21:00,
2013-06-07 02:36:00,52.3,47.0,30.03,NNW,339,2.0,-999.0,83,-99.99,,,0.00,0,weatherlink.com 1.10,2013-06-07 07:36:00,
2013-06-07 02:51:00,51.9,47.0,30.03,NNW,342,1.0,-999.0,84,-99.99,,,0.00,0,weatherlink.com 1.10,2013-06-07 07:51:00,
2013-06-07 03:07:00,51.6,47.0,30.03,NNW,339,2.0,-999.0,84,-99.99,,,0.00,0,weatherlink.com 1.10,2013-06-07 08:07:00,
2013-06-07 03:22:00,51.3,47.0,30.03,NNW,336,4.0,-999.0,85,-99.99,,,0.00,0,weatherlink.com 1.10,2013-06-07 08:22:00,
2013-06-07 03:37:00,51.1,47.0,30.03,NNW,333,1.0,-999.0,85,-99.99,,,0.00,0,weatherlink.com 1.10,2013-06-07 08:37:00,
2013-06-07 03:52:00,51.0,47.0,30.04,NNW,341,4.0,-999.0,86,-99.99,,,0.00,0,weatherlink.com 1.10,2013-06-07 08:52:00,
2013-06-07 04:07:00,50.8,47.0,30.03,NNW,346,2.0,-999.0,86,-99.99,,,0.00,0,weatherlink.com 1.10,2013-06-07 09:07:00,
2013-06-07 04:22:00,50.5,47.0,30.04,NNW,342,2.0,-999.0,87,-99.99,,,0.00,0,weatherlink.com 1.10,2013-06-07 09:22:00,
2013-06-07 04:37:00,50.4,47.0,30.04,NNW,346,2.0,-999.0,87,-99.99,,,0.00,0,weatherlink.com 1.10,2013-06-07 09:37:00,
2013-06-07 04:52:00,50.1,46.0,30.04,NNW,333,2.0,-999.0,87,-99.99,,,0.00,0,weatherlink.com 1.10,2013-06-07 09:52:00,
2013-06-07 05:07:00,49.9,46.0,30.04,NW,322,2.0,-999.0,87,-99.99,,,0.00,0,weatherlink.com 1.10,2013-06-07 10:07:00,
2013-06-07 05:22:00,49.7,46.0,30.04,North,349,2.0,-999.0,88,-99.99,,,0.00,0,weatherlink.com 1.10,2013-06-07 10:22:00,
2013-06-07 05:37:00,49.6,46.0,30.04,NNW,343,2.0,-999.0,88,-99.99,,,0.00,0,weatherlink.com 1.10,2013-06-07 10:37:00,
2013-06-07 05:52:00,49.4,46.0,30.05,NNW,338,2.0,-999.0,88,-99.99,,,0.00,0,weatherlink.com 1.10,2013-06-07 10:52:00,
2013-06-07 06:07:00,49.2,46.0,30.05,NNW,343,0.0,-999.0,88,-99.99,,,0.00,9,weatherlink.com 1.10,2013-06-07 11:07:00,
2013-06-07 06:24:00,48.8,45.0,30.05,NNW,343,4.0,-999.0,88,-99.99,,,0.00,19,weatherlink.com 1.10,2013-06-07 11:24:00,
2013-06-07 06:37:00,48.8,46.0,30.05,NNW,338,1.0,-999.0,89,-99.99,,,0.00,53,weatherlink.com 1.10,2013-06-07 11:37:00,
2013-06-07 06:52:00,49.3,47.0,30.05,NNW,335,1.0,-999.0,90,-99.99,,,0.00,121,weatherlink.com 1.10,2013-06-07 11:52:00,
2013-06-07 07:07:00,50.3,48.0,30.06,NNW,334,2.0,-999.0,91,-99.99,,,0.00,167,weatherlink.com 1.10,2013-06-07 12:07:00,
2013-06-07 07:22:00,51.5,49.0,30.05,North,355,2.0,-999.0,91,-99.99,,,0.00,211,weatherlink.com 1.10,2013-06-07 12:22:00,
2013-06-07 07:37:00,52.9,50.0,30.05,North,355,2.0,-999.0,90,-99.99,,,0.00,257,weatherlink.com 1.10,2013-06-07 12:37:00,
2013-06-07 07:52:00,54.5,51.0,30.05,NNE,13,1.0,-999.0,88,-99.99,,,0.00,315,weatherlink.com 1.10,2013-06-07 12:52:00,
2013-06-07 08:07:00,56.4,52.0,30.05,North,355,1.0,-999.0,86,-99.99,,,0.00,373,weatherlink.com 1.10,2013-06-07 13:07:00,
2013-06-07 08:22:00,59.0,54.0,30.05,NE,35,1.0,-999.0,82,-99.99,,,0.00,420,weatherlink.com 1.10,2013-06-07 13:22:00,
2013-06-07 08:37:00,61.2,54.0,30.05,South,185,1.0,-999.0,78,-99.99,,,0.00,468,weatherlink.com 1.10,2013-06-07 13:37:00,
2013-06-07 08:52:00,63.0,55.0,30.05,South,190,1.0,-999.0,74,-99.99,,,0.00,510,weatherlink.com 1.10,2013-06-07 13:52:00,
2013-06-07 09:07:00,64.5,56.0,30.05,NNW,338,0.0,-999.0,73,-99.99,,,0.00,543,weatherlink.com 1.10,2013-06-07 14:07:00,
2013-06-07 09:22:00,65.7,54.0,30.05,NNE,24,1.0,-999.0,66,-99.99,,,0.00,603,weatherlink.com 1.10,2013-06-07 14:22:00,
2013-06-07 09:37:00,67.0,55.0,30.06,North,10,2.0,-999.0,66,-99.99,,,0.00,649,weatherlink.com 1.10,2013-06-07 14:37:00,
2013-06-07 09:53:00,68.0,54.0,30.05,NNW,336,5.0,-999.0,62,-99.99,,,0.00,687,weatherlink.com 1.10,2013-06-07 14:53:00,
2013-06-07 10:08:00,68.6,54.0,30.05,NNE,29,2.0,-999.0,60,-99.99,,,0.00,722,weatherlink.com 1.10,2013-06-07 15:08:00,
2013-06-07 10:23:00,69.2,53.0,30.05,WNW,284,2.0,-999.0,57,-99.99,,,0.00,775,weatherlink.com 1.10,2013-06-07 15:23:00,
2013-06-07 10:38:00,69.4,52.0,30.05,NE,50,2.0,-999.0,54,-99.99,,,0.00,162,weatherlink.com 1.10,2013-06-07 15:38:00,
2013-06-07 10:53:00,69.9,52.0,30.04,NNW,342,4.0,-999.0,53,-99.99,,,0.00,914,weatherlink.com 1.10,2013-06-07 15:53:00,
2013-06-07 11:08:00,70.7,50.0,30.03,WNW,286,2.0,-999.0,49,-99.99,,,0.00,930,weatherlink.com 1.10,2013-06-07 16:08:00,
2013-06-07 11:23:00,70.7,52.0,30.03,WSW,252,3.0,-999.0,52,-99.99,,,0.00,912,weatherlink.com 1.10,2013-06-07 16:23:00,
2013-06-07 11:38:00,71.1,51.0,30.03,NNW,348,2.0,-999.0,49,-99.99,,,0.00,974,weatherlink.com 1.10,2013-06-07 16:38:00,
2013-06-07 11:53:00,71.8,51.0,30.03,NE,38,5.0,-999.0,49,-99.99,,,0.00,954,weatherlink.com 1.10,2013-06-07 16:53:00,
2013-06-07 12:08:00,72.4,50.0,30.02,NNW,344,6.0,-999.0,46,-99.99,,,0.00,974,weatherlink.com 1.10,2013-06-07 17:08:00,
2013-06-07 12:23:00,72.8,51.0,30.02,NE,51,5.0,-999.0,47,-99.99,,,0.00,956,weatherlink.com 1.10,2013-06-07 17:23:00,
2013-06-07 12:38:00,73.2,52.0,30.01,North,5,7.0,-999.0,47,-99.99,,,0.00,287,weatherlink.com 1.10,2013-06-07 17:38:00,
2013-06-07 12:53:00,73.5,51.0,30.01,North,360,4.0,-999.0,45,-99.99,,,0.00,983,weatherlink.com 1.10,2013-06-07 17:53:00,
2013-06-07 13:08:00,74.0,50.0,30.00,NNE,12,8.0,-999.0,43,-99.99,,,0.00,322,weatherlink.com 1.10,2013-06-07 18:08:00,
2013-06-07 13:23:00,74.1,50.0,29.99,WNW,302,4.0,-999.0,43,-99.99,,,0.00,969,weatherlink.com 1.10,2013-06-07 18:23:00,
2013-06-07 13:53:00,74.1,52.0,29.98,NNE,18,2.0,-999.0,46,-99.99,,,0.00,969,weatherlink.com 1.10,2013-06-07 18:53:00,
2013-06-07 14:08:00,75.0,50.0,29.98,NNW,336,2.0,-999.0,42,-99.99,,,0.00,958,weatherlink.com 1.10,2013-06-07 19:08:00,
2013-06-07 14:23:00,75.3,52.0,29.97,ENE,74,10.0,-999.0,44,-99.99,,,0.00,944,weatherlink.com 1.10,2013-06-07 19:23:00,
2013-06-07 14:38:00,74.9,48.0,29.97,East,99,4.0,-999.0,38,-99.99,,,0.00,933,weatherlink.com 1.10,2013-06-07 19:38:00,
2013-06-07 14:53:00,75.7,52.0,29.96,NNE,28,1.0,-999.0,43,-99.99,,,0.00,907,weatherlink.com 1.10,2013-06-07 19:53:00,
2013-06-07 15:08:00,76.0,51.0,29.96,ENE,65,5.0,-999.0,41,-99.99,,,0.00,886,weatherlink.com 1.10,2013-06-07 20:08:00,
2013-06-07 15:23:00,76.0,51.0,29.95,East,82,3.0,-999.0,41,-99.99,,,0.00,860,weatherlink.com 1.10,2013-06-07 20:23:00,
2013-06-07 15:53:00,77.2,51.0,29.94,WSW,258,3.0,-999.0,40,-99.99,,,0.00,802,weatherlink.com 1.10,2013-06-07 20:53:00,
2013-06-07 16:08:00,77.4,50.0,29.94,ESE,121,0.0,-999.0,39,-99.99,,,0.00,770,weatherlink.com 1.10,2013-06-07 21:08:00,
2013-06-07 16:23:00,78.0,50.0,29.94,NW,310,4.0,-999.0,37,-99.99,,,0.00,654,weatherlink.com 1.10,2013-06-07 21:23:00,
2013-06-07 16:39:00,78.0,50.0,29.93,NW,319,0.0,-999.0,37,-99.99,,,0.00,687,weatherlink.com 1.10,2013-06-07 21:39:00,
2013-06-07 17:09:00,79.0,51.0,29.92,NNW,327,2.0,-999.0,38,-99.99,,,0.00,547,weatherlink.com 1.10,2013-06-07 22:09:00,
2013-06-07 17:39:00,79.3,51.0,29.92,NNE,14,2.0,-999.0,38,-99.99,,,0.00,571,weatherlink.com 1.10,2013-06-07 22:39:00,
2013-06-07 17:54:00,77.8,51.0,29.91,SE,132,9.0,-999.0,39,-99.99,,,0.00,445,weatherlink.com 1.10,2013-06-07 22:54:00,
2013-06-07 18:08:00,76.0,50.0,29.90,SE,138,12.0,-999.0,40,-99.99,,,0.00,295,weatherlink.com 1.10,2013-06-07 23:08:00,
2013-06-07 18:23:00,75.3,50.0,29.90,SE,136,10.0,-999.0,41,-99.99,,,0.00,308,weatherlink.com 1.10,2013-06-07 23:23:00,
2013-06-07 18:38:00,74.4,50.0,29.90,East,88,7.0,-999.0,42,-99.99,,,0.00,181,weatherlink.com 1.10,2013-06-07 23:38:00,
2013-06-07 19:24:00,74.0,51.0,29.89,SE,135,10.0,-999.0,44,-99.99,,,0.00,153,weatherlink.com 1.10,2013-06-08 00:24:00,
2013-06-07 19:39:00,73.5,51.0,29.89,SE,129,9.0,-999.0,45,-99.99,,,0.00,142,weatherlink.com 1.10,2013-06-08 00:39:00,
2013-06-07 19:55:00,72.8,51.0,29.88,SE,125,9.0,-999.0,46,-99.99,,,0.00,113,weatherlink.com 1.10,2013-06-08 00:55:00,
2013-06-07 20:09:00,72.2,51.0,29.89,SE,132,8.0,-999.0,47,-99.99,,,0.00,76,weatherlink.com 1.10,2013-06-08 01:09:00,
2013-06-07 20:24:00,71.3,50.0,29.89,SE,125,7.0,-999.0,48,-99.99,,,0.00,25,weatherlink.com 1.10,2013-06-08 01:24:00,
2013-06-07 20:39:00,70.0,50.0,29.88,SE,126,7.0,-999.0,50,-99.99,,,0.00,18,weatherlink.com 1.10,2013-06-08 01:39:00,
2013-06-07 20:54:00,68.7,50.0,29.89,SE,138,6.0,-999.0,52,-99.99,,,0.00,7,weatherlink.com 1.10,2013-06-08 01:54:00,
2013-06-07 21:09:00,67.2,50.0,29.88,SE,136,6.0,-999.0,55,-99.99,,,0.00,0,weatherlink.com 1.10,2013-06-08 02:09:00,
2013-06-07 21:39:00,64.9,50.0,29.89,SE,138,8.0,-999.0,59,-99.99,,,0.00,0,weatherlink.com 1.10,2013-06-08 02:39:00,
2013-06-07 21:54:00,64.3,50.0,29.89,SE,146,10.0,-999.0,61,-99.99,,,0.00,0,weatherlink.com 1.10,2013-06-08 02:54:00,
2013-06-07 22:09:00,64.6,51.0,29.90,SSE,151,10.0,-999.0,61,-99.99,,,0.00,0,weatherlink.com 1.10,2013-06-08 03:09:00,
2013-06-07 22:24:00,64.6,51.0,29.90,SSE,162,8.0,-999.0,61,-99.99,,,0.00,0,weatherlink.com 1.10,2013-06-08 03:24:00,
2013-06-07 22:39:00,64.1,51.0,29.91,SSE,153,8.0,-999.0,63,-99.99,,,0.00,0,weatherlink.com 1.10,2013-06-08 03:39:00,
2013-06-07 22:54:00,63.5,51.0,29.91,SSE,160,7.0,-999.0,64,-99.99,,,0.00,0,weatherlink.com 1.10,2013-06-08 03:54:00,
2013-06-07 23:09:00,62.6,52.0,29.90,SE,146,9.0,-999.0,68,-99.99,,,0.00,0,weatherlink.com 1.10,2013-06-08 04:09:00,
2013-06-07 23:24:00,62.0,51.0,29.89,SSE,159,8.0,-999.0,68,-99.99,,,0.00,0,weatherlink.com 1.10,2013-06-08 04:24:00,
2013-06-07 23:39:00,61.8,51.0,29.89,SSE,153,8.0,-999.0,68,-99.99,,,0.00,0,weatherlink.com 1.10,2013-06-08 04:39:00,
2013-06-07 23:54:00,61.5,51.0,29.88,SSE,155,11.0,-999.0,69,-99.99,,,0.00,0,weatherlink.com 1.10,2013-06-08 04:54:00,